Dennis, Texas
Current Conditions -  °F | °C
As of 11:35 PM on Friday 19 Dec 2014 (Local Time) from KGDJ Reporting Station
Overcast Overcast  
Wind Chill:   Ceiling: 1100
Heat Index:   Visibility: 7mi
Dew Point:   Wind: 3mph
Humidity: 87%   Direction: 10°N
Pressure: 30.24"   Gusts: NA
Location:  32.62°N, 97.93°W
Report Text: KGDJ 200535Z AUTO 01003KT 7SM OVC011 09/07 A3024 RMK AO2 T00850065
Loading
Personal Weather Stations






























Interactive Weather Map New forecast layout! Learn more

10-Day Weather Forecast

Advertisements
Track Severe Weather on mobile